Portland-Hillsboro, OR

11:59 AM PDT on October 20, 2014 (GMT -0700)
Portland-Hillsboro | Change Station
CLOSE
Current Station
Airport
Location: Portland Hillsboro,
Elevation: 203 ft
Nearby Weather Stations

Elev 203 ft 45.54 °N, 122.95 °W | Updated 6 minutes ago

Mostly Cloudy
Mostly Cloudy
60 °F
Feels Like 60 °F
N
13
Wind Variable Wind from South

Today
High -- | Low -- °F
--% Chance of Precip.
Yesterday
High -- | Low -- °F
Precip. -- in
7:34 AM 6:17 PM
Waning Crescent, 9% visible
Pressure 29.80 in
Visibility 10.0 miles
Clouds Few 1400 ft
Mostly Cloudy 2100 ft
Dew Point 56 °F
Humidity 86%
Rainfall 0.08 in
Snow Depth 0 in
UV 2 out of 12
Pollen .40 out of 12
Ozone Good
PM2.5 Good
Flu Activity Sporadic
METAR KHIO 201853Z 17011KT 10SM FEW014 BKN021 16/13 A2980 RMK AO2 SLP089 T01560133

More Conditions Fewer Conditions

Pressure 29.80 in
Visibility 10.0 miles
Clouds Few 1400 ft
Mostly Cloudy 2100 ft
Dew Point 56 °F
Humidity 86%
Rainfall 0.08 in
Snow Depth 0 in
UV 2 out of 12
Pollen .40 out of 12
Ozone Good
PM2.5 Good
Flu Activity Sporadic
METAR KHIO 201853Z 17011KT 10SM FEW014 BKN021 16/13 A2980 RMK AO2 SLP089 T01560133

More Conditions Fewer Conditions

10-Day Weather Forecast

Almanac

Astronomy

Oct. 20, 2014 Rise Set
Actual Time 7:34 AM PDT 6:17 PM PDT
Civil Twilight 7:04 AM PDT 6:47 PM PDT
Nautical Twilight 6:30 AM PDT 7:21 PM PDT
Astronomical Twilight 5:56 AM PDT 7:56 PM PDT
Moon 4:19 AM PDT 4:50 PM PDT
Length of Visible Light 11h 42m
Length of Day
10h 42m
Waning Crescent, 9% of the Moon is Illuminated
Today
Waning Crescent
Oct 23
New
Oct 30
First Quarter
Nov 6
Full
Nov 14
Last Quarter

Today's Extremes

State Highs State Lows

Community

WunderPhotos

Upload Photos

1,763,463 photos uploaded!

Nearby

Air Quality

  Air Quality AQ Index Pollutant
Yesterday Good
PM2.5
Yesterday Good
OZONE
Current Good
OZONE
Current Good
PM2.5
Monday Good
PM2.5

Snow Depth

Station Depth Elevation
Seine Creek 0 in 2000 ft
North Fork 0 in 3120 ft
Peavine Ridge 0 in 3500 ft
Greenpoint 0 in 3200 ft
Red Hill 0 in 4400 ft

Earthquake Activity

City Distance Mag. Time & Date
No recent earthquake activity has been reported nearby.
Minimum magnitude displayed is 2.5.

Coastal Water Temperatures

Place Temperature
No Stations Reporting

Nearby Weather Stations